Time;durP1;ratioP1;P1;durP2;ratioP2;P2;SDS_P1;SDS_P2;PMS_P1;PMS_P2;Temp;Humidity;BMP_temperature;BMP_pressure;BME280_temperature;BME280_humidity;BME280_pressure;Samples;Min_cycle;Max_cycle;Signal;HPM_P1;HPM_P2
2021/05/15 00:00:48;;;;;;;24.30;14.27;;;;;;;9.84;100.00;100740.53;10296295;28;20388;-74
2021/05/15 00:05:48;;;;;;;25.13;14.73;;;;;;;9.72;100.00;100719.88;10279773;28;20090;-75
2021/05/15 00:10:49;;;;;;;22.27;13.55;;;;;;;9.79;100.00;100715.75;10263777;28;20043;-74
2021/05/15 00:15:50;;;;;;;18.40;12.75;;;;;;;9.76;100.00;100702.97;10254838;28;20053;-75
2021/05/15 00:20:50;;;;;;;20.00;12.57;;;;;;;9.31;100.00;100630.44;10274703;28;20057;-75
2021/05/15 00:25:51;;;;;;;18.73;11.05;;;;;;;9.84;100.00;100691.16;10262400;28;20479;-75
2021/05/15 00:30:52;;;;;;;16.35;11.15;;;;;;;9.51;100.00;100625.00;10261454;28;20058;-75
2021/05/15 00:35:53;;;;;;;21.95;12.35;;;;;;;9.88;100.00;100665.03;10280592;28;20070;-75
2021/05/15 00:40:53;;;;;;;20.45;12.77;;;;;;;9.78;100.00;100649.41;10255436;28;20055;-75
2021/05/15 00:45:54;;;;;;;21.17;12.82;;;;;;;9.87;100.00;100658.06;10274566;28;20314;-75
2021/05/15 00:50:55;;;;;;;20.30;12.95;;;;;;;9.85;100.00;100654.91;10278218;28;20719;-75
2021/05/15 00:55:55;;;;;;;17.85;11.85;;;;;;;9.77;100.00;100637.06;10272375;28;20039;-75
2021/05/15 01:00:56;;;;;;;22.50;12.35;;;;;;;9.00;100.00;100520.00;10292267;28;20259;-75
2021/05/15 01:05:56;;;;;;;15.23;11.88;;;;;;;9.39;100.00;100558.50;10243710;28;20042;-75
2021/05/15 01:10:57;;;;;;;17.08;11.18;;;;;;;9.74;100.00;100623.13;10260804;28;20034;-74
2021/05/15 01:15:59;;;;;;;20.52;11.68;;;;;;;9.43;100.00;100585.53;10273028;28;20030;-74
2021/05/15 01:21:01;;;;;;;;;;;;;;;9.64;100.00;100634.53;10269460;28;20371;-74
2021/05/15 01:26:22;;;;;;;18.05;11.60;;;;;;;9.65;100.00;100614.47;10271182;28;19914;-74
2021/05/15 01:31:23;;;;;;;19.00;11.75;;;;;;;9.61;100.00;100624.41;10271209;28;20085;-75
2021/05/15 01:36:25;;;;;;;21.67;12.60;;;;;;;9.47;100.00;100607.97;10280381;28;20031;-74
2021/05/15 01:41:26;;;;;;;17.67;12.32;;;;;;;9.44;100.00;100614.09;10291958;28;20043;-75
2021/05/15 01:46:26;;;;;;;22.20;13.07;;;;;;;9.27;100.00;100610.69;10271427;28;20051;-74
2021/05/15 01:51:27;;;;;;;20.42;11.90;;;;;;;9.15;100.00;100608.13;10285200;28;20402;-75
2021/05/15 01:56:29;;;;;;;22.67;12.98;;;;;;;9.02;100.00;100601.31;10276578;28;20097;-75
2021/05/15 02:01:29;;;;;;;21.38;14.45;;;;;;;8.43;100.00;100525.78;10281681;28;20074;-75
2021/05/15 02:06:30;;;;;;;17.50;13.23;;;;;;;8.80;100.00;100608.94;10282058;28;20042;-76
2021/05/15 02:11:30;;;;;;;24.42;16.02;;;;;;;8.72;100.00;100609.13;10279075;28;20490;-75
2021/05/15 02:16:31;;;;;;;23.90;13.70;;;;;;;8.72;100.00;100596.44;10296498;28;20546;-75
2021/05/15 02:21:31;;;;;;;25.80;14.48;;;;;;;8.71;100.00;100589.50;10279322;28;20064;-75
2021/05/15 02:26:32;;;;;;;23.73;14.55;;;;;;;8.84;100.00;100596.34;10271836;28;20484;-75
2021/05/15 02:31:32;;;;;;;24.08;13.88;;;;;;;8.94;100.00;100591.53;10273497;28;20073;-75
2021/05/15 02:36:33;;;;;;;18.95;12.88;;;;;;;8.99;100.00;100594.72;10279884;28;20118;-75
2021/05/15 02:41:33;;;;;;;22.88;14.40;;;;;;;9.04;100.00;100596.34;10280862;28;20093;-75
2021/05/15 02:46:34;;;;;;;23.52;14.45;;;;;;;8.92;100.00;100572.22;10277688;28;20067;-75
2021/05/15 02:51:34;;;;;;;25.20;15.48;;;;;;;8.73;100.00;100530.66;10276417;28;20399;-75
2021/05/15 02:56:35;;;;;;;26.40;15.52;;;;;;;9.15;100.00;100581.16;10281844;28;20039;-75
2021/05/15 03:01:35;;;;;;;20.55;13.88;;;;;;;9.07;100.00;100557.88;10266468;28;20079;-76
2021/05/15 03:06:36;;;;;;;25.80;15.40;;;;;;;9.25;100.00;100574.41;10286592;28;20035;-75
2021/05/15 03:11:36;;;;;;;21.40;15.40;;;;;;;9.31;100.00;100563.00;10284486;28;20058;-75
2021/05/15 03:16:38;;;;;;;24.08;15.05;;;;;;;9.38;100.00;100566.94;10300738;28;20129;-75
2021/05/15 03:21:38;;;;;;;22.65;14.15;;;;;;;9.37;100.00;100560.00;10268061;28;20130;-75
2021/05/15 03:26:39;;;;;;;22.35;15.23;;;;;;;9.29;100.00;100559.88;10281413;28;20042;-76
2021/05/15 03:31:39;;;;;;;24.50;15.18;;;;;;;9.16;100.00;100528.78;10272166;28;20496;-74
2021/05/15 03:36:40;;;;;;;26.15;15.70;;;;;;;9.30;100.00;100539.06;10267603;28;20057;-75
2021/05/15 03:41:40;;;;;;;24.98;14.85;;;;;;;9.26;100.00;100522.78;10287311;28;20482;-75
2021/05/15 03:46:41;;;;;;;26.95;14.48;;;;;;;9.03;100.00;100489.63;10283079;28;20130;-75
2021/05/15 03:51:42;;;;;;;28.30;14.90;;;;;;;8.94;100.00;100473.69;10282229;28;20047;-75
2021/05/15 03:56:42;;;;;;;29.60;15.95;;;;;;;9.25;100.00;100526.66;10283075;28;20503;-75
2021/05/15 04:01:43;;;;;;;29.27;14.82;;;;;;;9.28;100.00;100525.91;10278222;28;20039;-74
2021/05/15 04:06:43;;;;;;;26.98;15.98;;;;;;;9.37;100.00;100538.41;10268058;28;20534;-74
2021/05/15 04:11:44;;;;;;;25.95;15.32;;;;;;;9.20;100.00;100505.38;10299078;28;20034;-74
2021/05/15 04:21:49;;;;;;;23.83;13.77;;;;;;;9.32;100.00;100526.78;10283118;28;20126;-75
2021/05/15 04:26:51;;;;;;;21.83;12.18;;;;;;;8.99;100.00;100464.53;10267489;28;20082;-75
2021/05/15 04:31:56;;;;;;;18.15;12.30;;;;;;;9.45;100.00;100518.50;10276740;28;20623;-80
2021/05/15 04:36:58;;;;;;;17.88;11.60;;;;;;;9.07;100.00;100447.34;10284167;28;20088;-80
2021/05/15 04:41:59;;;;;;;23.27;12.98;;;;;;;9.54;100.00;100505.56;10282735;28;20050;-82
2021/05/15 04:46:59;;;;;;;21.55;15.15;;;;;;;9.62;100.00;100501.84;10297568;28;20051;-78
2021/05/15 04:52:00;;;;;;;23.70;16.38;;;;;;;9.62;100.00;100507.25;10281257;28;20079;-78
2021/05/15 04:57:00;;;;;;;27.52;17.55;;;;;;;9.69;100.00;100507.38;10283431;28;20066;-79
2021/05/15 05:02:00;;;;;;;27.90;18.00;;;;;;;9.34;100.00;100431.25;10289436;28;20039;-78
2021/05/15 05:07:01;;;;;;;32.08;17.52;;;;;;;9.73;100.00;100492.00;10284035;28;20047;-81
2021/05/15 05:12:02;;;;;;;28.48;18.65;;;;;;;9.79;100.00;100494.41;10269635;28;20065;-79
2021/05/15 05:17:02;;;;;;;32.10;19.60;;;;;;;9.88;100.00;100500.34;10277150;28;20031;-79
2021/05/15 05:22:03;;;;;;;31.67;17.10;;;;;;;9.94;100.00;100490.78;10264990;28;20547;-82
2021/05/15 05:27:05;;;;;;;26.67;17.10;;;;;;;9.98;100.00;100497.00;10281817;28;20532;-77
2021/05/15 05:32:08;;;;;;;25.73;16.58;;;;;;;10.01;100.00;100485.47;10274958;28;20051;-78
2021/05/15 05:37:08;;;;;;;23.90;15.70;;;;;;;9.79;100.00;100445.81;10260883;28;20031;-78
2021/05/15 05:42:09;;;;;;;30.27;17.38;;;;;;;9.79;100.00;100451.22;10274867;28;20034;-77
2021/05/15 05:47:09;;;;;;;25.63;15.65;;;;;;;9.89;100.00;100439.78;10278670;28;20515;-78
2021/05/15 05:52:10;;;;;;;21.60;15.73;;;;;;;10.53;100.00;100494.69;10295943;28;20050;-78
2021/05/15 05:57:11;;;;;;;22.75;15.45;;;;;;;10.39;100.00;100445.88;10272598;28;20105;-78
2021/05/15 06:02:11;;;;;;;22.90;14.95;;;;;;;10.74;100.00;100482.59;10282724;28;20038;-78
2021/05/15 06:07:13;;;;;;;23.13;15.93;;;;;;;10.69;100.00;100474.81;10250442;28;20057;-77
2021/05/15 06:12:14;;;;;;;26.52;16.90;;;;;;;10.61;100.00;100484.00;10288689;28;20050;-79
2021/05/15 06:17:15;;;;;;;26.92;17.10;;;;;;;10.86;99.25;100474.22;10287947;28;20197;-79
2021/05/15 06:22:15;;;;;;;21.52;15.57;;;;;;;10.97;96.13;100469.72;10277581;28;20093;-78
2021/05/15 06:27:16;;;;;;;24.10;14.23;;;;;;;10.92;94.74;100467.34;10261016;28;20264;-78
2021/05/15 06:32:16;;;;;;;27.40;15.90;;;;;;;10.46;95.05;100402.72;10299626;28;20038;-78
2021/05/15 06:37:17;;;;;;;28.75;16.77;;;;;;;10.48;95.38;100459.91;10274334;28;20031;-78
2021/05/15 06:42:20;;;;;;;23.75;15.48;;;;;;;10.69;95.21;100453.19;10281657;28;20770;-78
2021/05/15 06:47:20;;;;;;;25.80;14.70;;;;;;;10.73;94.06;100426.97;10283938;28;20569;-78
2021/05/15 06:52:21;;;;;;;22.48;15.43;;;;;;;11.07;92.75;100451.28;10266087;28;20043;-78
2021/05/15 06:57:21;;;;;;;20.85;14.43;;;;;;;11.16;90.52;100411.16;10306890;28;20046;-78
2021/05/15 07:02:22;;;;;;;22.75;15.07;;;;;;;11.25;90.24;100375.69;10283741;28;20130;-78
2021/05/15 07:07:22;;;;;;;22.10;15.00;;;;;;;11.39;86.74;100387.41;10302888;28;20043;-78
2021/05/15 07:12:24;;;;;;;24.42;15.80;;;;;;;11.77;86.94;100428.66;10287475;28;20047;-78
2021/05/15 07:17:25;;;;;;;26.70;15.77;;;;;;;11.77;84.19;100374.50;10285015;28;20395;-77
2021/05/15 07:22:26;;;;;;;24.75;16.83;;;;;;;11.87;82.09;100372.22;10285000;28;20034;-76
2021/05/15 07:27:28;;;;;;;27.85;18.85;;;;;;;11.79;85.58;100399.25;10278618;28;20150;-75
2021/05/15 07:32:29;;;;;;;30.00;19.38;;;;;;;11.83;86.35;100415.53;10271947;28;20035;-79
2021/05/15 07:37:29;;;;;;;30.10;18.45;;;;;;;12.00;87.23;100419.53;10296003;28;20123;-76
2021/05/15 07:42:30;;;;;;;29.20;18.25;;;;;;;12.40;84.81;100420.50;10286972;28;20041;-75
2021/05/15 07:47:30;;;;;;;22.50;16.60;;;;;;;12.08;82.12;100377.78;10286018;28;20153;-77
2021/05/15 07:52:31;;;;;;;26.15;17.02;;;;;;;12.29;82.25;100414.25;10266974;28;20126;-77
2021/05/15 07:57:31;;;;;;;27.55;18.27;;;;;;;11.95;83.79;100384.69;10301537;28;20023;-77
2021/05/15 08:02:32;;;;;;;29.35;20.02;;;;;;;12.13;83.78;100401.78;10305983;28;20768;-77
2021/05/15 08:07:33;;;;;;;30.88;21.00;;;;;;;11.92;84.64;100377.31;10283518;28;20042;-78
2021/05/15 08:12:34;;;;;;;35.13;22.73;;;;;;;11.93;88.07;100397.84;10284318;28;20360;-80
2021/05/15 08:17:36;;;;;;;39.22;27.33;;;;;;;11.55;90.06;100384.41;10298406;28;20046;-78
2021/05/15 08:22:36;;;;;;;38.57;27.63;;;;;;;11.15;91.43;100344.69;10284430;28;20185;-78
2021/05/15 08:27:39;;;;;;;46.10;29.27;;;;;;;11.46;92.52;100391.31;10298415;28;20096;-77
2021/05/15 08:32:40;;;;;;;48.85;31.10;;;;;;;11.45;93.93;100403.28;10283612;28;20097;-78
2021/05/15 08:37:41;;;;;;;52.72;33.42;;;;;;;11.26;96.43;100372.59;10299807;28;20112;-78
2021/05/15 08:42:42;;;;;;;54.92;33.88;;;;;;;11.07;99.56;100322.22;10266750;28;20130;-75
2021/05/15 08:47:44;;;;;;;48.42;32.13;;;;;;;11.57;97.11;100375.91;10251432;28;20082;-75
2021/05/15 08:52:49;;;;;;;47.80;32.63;;;;;;;11.64;98.21;100359.69;10274545;28;20085;-75
2021/05/15 08:57:50;;;;;;;47.00;31.75;;;;;;;11.53;96.62;100299.34;10245283;28;20122;-75
2021/05/15 09:02:54;;;;;;;53.28;33.65;;;;;;;12.00;94.83;100305.78;10263222;28;20445;-74
2021/05/15 09:07:59;;;;;;;46.70;31.83;;;;;;;12.20;93.00;100325.94;10267533;28;20404;-74
2021/05/15 09:13:19;;;;;;;43.67;30.92;;;;;;;11.90;91.53;100279.41;10296626;28;20039;-74
2021/05/15 09:18:22;;;;;;;47.00;30.83;;;;;;;11.71;93.73;100286.66;10280036;28;20067;-75
2021/05/15 09:23:27;;;;;;;46.13;33.13;;;;;;;11.70;94.07;100282.41;10292202;28;20419;-77
2021/05/15 09:28:46;;;;;;;45.17;31.52;;;;;;;12.06;95.33;100336.72;10271112;28;20460;-77
2021/05/15 09:33:52;;;;;;;51.22;31.83;;;;;;;11.79;96.74;100318.03;10271117;28;20046;-75
2021/05/15 09:39:01;;;;;;;51.67;32.28;;;;;;;11.82;97.70;100322.66;10281869;28;20045;-77
2021/05/15 09:44:06;;;;;;;44.85;31.63;;;;;;;12.03;99.65;100321.25;10266253;28;20034;-76
2021/05/15 09:49:07;;;;;;;46.15;30.48;;;;;;;12.19;98.42;100297.31;10278378;28;20503;-75
2021/05/15 09:54:28;;;;;;;43.42;29.23;;;;;;;12.43;96.09;100290.38;10298073;28;20042;-76
2021/05/15 09:59:36;;;;;;;32.83;23.58;;;;;;;12.45;95.61;100298.91;10273906;28;20055;-75
2021/05/15 10:04:40;;;;;;;35.67;21.73;;;;;;;13.42;93.23;100290.75;10276452;28;20078;-75
2021/05/15 10:09:44;;;;;;;18.38;14.77;;;;;;;14.52;80.74;100263.47;10295107;28;20038;-75
2021/05/15 10:14:44;;;;;;;19.40;13.60;;;;;;;14.56;78.51;100204.41;10279078;28;20130;-75
2021/05/15 10:19:45;;;;;;;21.08;14.55;;;;;;;14.40;79.83;100258.50;10261161;28;20179;-76
2021/05/15 10:24:48;;;;;;;13.68;11.25;;;;;;;13.93;79.51;100218.78;10277452;28;20055;-76
2021/05/15 10:29:53;;;;;;;11.73;7.50;;;;;;;13.81;77.84;100254.56;10280406;28;20054;-76
2021/05/15 10:35:01;;;;;;;14.57;8.90;;;;;;;13.82;79.78;100196.34;10279172;28;20034;-75
2021/05/15 10:40:21;;;;;;;14.90;8.52;;;;;;;13.65;79.05;100202.66;10286245;28;20089;-76
2021/05/15 10:45:42;;;;;;;14.35;9.10;;;;;;;13.95;78.78;100227.31;10271768;28;20392;-75
2021/05/15 10:50:48;;;;;;;19.83;10.80;;;;;;;13.89;78.87;100234.31;10273055;28;20470;-75
2021/05/15 10:56:13;;;;;;;15.90;9.02;;;;;;;13.95;77.82;100221.88;10257014;28;20555;-76
2021/05/15 11:01:22;;;;;;;12.98;8.45;;;;;;;13.85;77.94;100206.44;10291778;28;20034;-74
2021/05/15 11:06:24;;;;;;;13.95;7.50;;;;;;;14.03;76.96;100210.97;10275926;28;20034;-75
2021/05/15 11:11:44;;;;;;;16.42;8.82;;;;;;;14.11;78.32;100185.28;10272672;28;20047;-77
2021/05/15 11:16:44;;;;;;;11.77;8.10;;;;;;;14.42;75.46;100193.63;10291563;28;20039;-75
2021/05/15 11:21:52;;;;;;;16.60;10.43;;;;;;;14.09;75.63;100150.38;10299083;28;20038;-75
2021/05/15 11:26:55;;;;;;;15.65;9.07;;;;;;;14.06;81.59;100188.44;10275523;28;20031;-75
2021/05/15 11:32:04;;;;;;;15.43;9.88;;;;;;;13.84;84.15;100188.56;10281652;28;20035;-75
2021/05/15 11:37:05;;;;;;;14.05;10.50;;;;;;;13.50;89.58;100181.00;10280711;28;20519;-75
2021/05/15 11:42:07;;;;;;;16.98;10.75;;;;;;;12.53;92.21;100115.34;10263661;28;20097;-75
2021/05/15 11:47:11;;;;;;;;;;;;;;;12.65;100.00;100193.59;10300123;28;20518;-77
2021/05/15 11:52:12;;;;;;;12.50;6.38;;;;;;;11.75;99.22;100149.34;10275737;28;19922;-78
2021/05/15 11:57:12;;;;;;;10.95;4.70;;;;;;;11.84;99.61;100179.53;10298782;28;20472;-78
2021/05/15 12:02:14;;;;;;;10.13;4.43;;;;;;;11.90;100.00;100125.03;10283986;28;20051;-77
2021/05/15 12:07:14;;;;;;;11.90;3.85;;;;;;;12.51;98.98;100150.22;10284274;28;20057;-78
2021/05/15 12:12:15;;;;;;;6.10;3.38;;;;;;;12.95;95.51;100162.53;10279832;28;20073;-77
2021/05/15 12:17:16;;;;;;;6.70;3.58;;;;;;;12.79;93.14;100099.78;10279339;28;20047;-78
2021/05/15 12:22:17;;;;;;;9.75;2.90;;;;;;;13.22;87.13;100143.06;10278788;28;20042;-77
2021/05/15 12:27:22;;;;;;;4.30;2.30;;;;;;;12.92;88.83;100119.16;10276197;28;20047;-76
2021/05/15 12:32:26;;;;;;;4.28;2.33;;;;;;;12.71;90.73;100136.25;10279484;28;20043;-77
2021/05/15 12:37:38;;;;;;;8.15;2.85;;;;;;;12.79;94.56;100132.34;10283176;28;20031;-77
2021/05/15 12:42:38;;;;;;;6.35;3.03;;;;;;;12.82;94.76;100066.47;10309294;28;20381;-76
2021/05/15 12:47:39;;;;;;;4.47;2.25;;;;;;;13.00;95.25;100110.56;10281239;28;20059;-77
2021/05/15 12:52:39;;;;;;;4.85;2.78;;;;;;;12.74;98.88;100054.09;10287323;28;20440;-77
2021/05/15 12:57:51;;;;;;;6.03;2.60;;;;;;;13.08;95.52;100087.69;10291687;28;20502;-78
2021/05/15 13:02:59;;;;;;;3.67;1.75;;;;;;;12.55;91.76;100047.94;10301986;28;20062;-82
2021/05/15 13:08:09;;;;;;;2.10;0.75;;;;;;;12.77;83.97;100102.13;10263632;28;20034;-82
2021/05/15 13:13:10;;;;;;;0.93;0.50;;;;;;;12.69;84.13;100080.44;10264509;28;20047;-81
2021/05/15 13:18:16;;;;;;;2.15;0.57;;;;;;;12.85;84.70;100081.97;10280156;28;20031;-80
2021/05/15 13:23:16;;;;;;;2.17;0.80;;;;;;;13.14;87.30;100076.41;10280968;28;20046;-81
2021/05/15 13:28:17;;;;;;;1.52;0.90;;;;;;;13.08;85.61;100041.56;10282921;28;20464;-80
2021/05/15 13:33:18;;;;;;;3.22;0.88;;;;;;;13.15;86.25;100067.13;10262664;28;20081;-79
2021/05/15 13:38:18;;;;;;;3.08;1.20;;;;;;;12.91;86.84;100069.56;10242083;28;20043;-79
2021/05/15 13:43:19;;;;;;;4.82;1.10;;;;;;;12.58;89.69;100063.47;10262814;28;20049;-80
2021/05/15 13:48:52;;;;;;;2.67;1.20;;;;;;;12.47;95.36;100057.28;10257697;28;20058;-79
2021/05/15 13:53:46;;;;;;;3.00;1.33;;;;;;;12.24;99.29;100061.19;10292343;28;20539;-80
2021/05/15 13:58:46;;;;;;;4.05;1.70;;;;;;;12.08;100.00;100052.69;10279280;28;20043;-79
2021/05/15 14:03:47;;;;;;;5.95;1.70;;;;;;;11.29;100.00;99955.19;10280660;28;20046;-79
2021/05/15 14:08:47;;;;;;;4.82;2.28;;;;;;;11.75;100.00;100013.97;10276307;28;20061;-79
2021/05/15 14:13:48;;;;;;;4.72;2.10;;;;;;;12.01;100.00;99995.81;10259645;28;20035;-79
2021/05/15 14:18:48;;;;;;;2.20;1.60;;;;;;;12.27;100.00;100006.22;10283855;28;20088;-79
2021/05/15 14:23:49;;;;;;;4.30;1.60;;;;;;;12.07;98.14;99969.88;10262645;28;20038;-79
2021/05/15 14:28:50;;;;;;;2.80;1.38;;;;;;;12.52;100.00;100008.09;10253603;28;20056;-77
2021/05/15 14:33:51;;;;;;;2.63;1.45;;;;;;;12.23;100.00;99951.25;10280587;28;20054;-78
2021/05/15 14:38:51;;;;;;;4.00;1.30;;;;;;;12.35;98.75;99962.84;10262073;28;20038;-78
2021/05/15 14:43:52;;;;;;;4.57;1.67;;;;;;;12.69;100.00;100004.53;10294138;28;20043;-84
2021/05/15 14:48:53;;;;;;;3.03;1.80;;;;;;;12.85;100.00;100011.44;10272527;28;20515;-79
2021/05/15 14:53:53;;;;;;;6.35;1.98;;;;;;;12.43;97.34;99948.09;10284332;28;20605;-80
2021/05/15 14:58:54;;;;;;;4.22;2.15;;;;;;;12.76;97.55;99997.53;10262298;28;20088;-81
2021/05/15 15:03:55;;;;;;;88.70;79.50;;;;;;;12.45;99.27;99941.09;10283705;28;20038;-78
2021/05/15 15:08:58;;;;;;;102.78;85.05;;;;;;;12.86;99.25;99988.56;10280121;28;20073;-85
2021/05/15 15:13:59;;;;;;;10.55;6.28;;;;;;;13.02;99.52;99978.03;10283543;28;20038;-80
2021/05/15 15:18:59;;;;;;;7.00;3.20;;;;;;;12.47;98.90;99897.34;10243334;28;20094;-83
2021/05/15 15:24:00;;;;;;;7.78;5.53;;;;;;;12.99;99.17;99978.81;10283498;28;20117;-79
2021/05/15 15:29:00;;;;;;;168.85;97.35;;;;;;;13.03;98.09;99985.00;10259009;28;20485;-76
2021/05/15 15:34:01;;;;;;;175.13;128.35;;;;;;;13.04;96.55;99967.53;10303001;28;20034;-76
2021/05/15 15:39:02;;;;;;;13.30;7.95;;;;;;;12.69;96.13;99928.59;10281218;28;20083;-78
2021/05/15 15:44:03;;;;;;;6.13;5.25;;;;;;;12.99;97.90;99973.41;10284691;28;20061;-78
2021/05/15 15:49:05;;;;;;;8.77;6.78;;;;;;;12.89;100.00;99979.66;10273291;28;20065;-78
2021/05/15 15:54:06;;;;;;;6.97;4.20;;;;;;;12.81;100.00;99975.41;10274326;28;20104;-78
2021/05/15 15:59:08;;;;;;;7.68;4.20;;;;;;;12.68;100.00;99980.53;10278620;28;20074;-79
2021/05/15 16:04:08;;;;;;;4.70;3.47;;;;;;;12.68;100.00;99970.44;10266831;28;20042;-80
2021/05/15 16:09:09;;;;;;;5.70;3.10;;;;;;;12.80;100.00;99965.75;10293649;28;20043;-79
2021/05/15 16:14:09;;;;;;;4.35;2.72;;;;;;;13.31;100.00;99969.72;10275421;28;20527;-79
2021/05/15 16:19:10;;;;;;;5.13;2.55;;;;;;;13.80;100.00;99970.50;10267219;28;20042;-76
2021/05/15 16:24:12;;;;;;;3.70;1.98;;;;;;;13.76;100.00;99967.06;10288429;28;20097;-78
2021/05/15 16:29:12;;;;;;;5.10;1.90;;;;;;;13.19;100.00;99951.94;10278761;28;20195;-77
2021/05/15 16:34:13;;;;;;;2.75;1.58;;;;;;;13.01;100.00;99960.22;10281808;28;20286;-80
2021/05/15 16:39:14;;;;;;;2.45;1.88;;;;;;;12.95;100.00;99945.50;10297676;28;20116;-79
2021/05/15 16:44:15;;;;;;;4.32;2.30;;;;;;;12.60;100.00;99958.06;10275600;28;20129;-79
2021/05/15 16:49:15;;;;;;;6.72;2.45;;;;;;;12.13;100.00;99962.88;10278582;28;20190;-78
2021/05/15 16:54:16;;;;;;;2.95;2.00;;;;;;;11.89;100.00;99952.88;10295990;28;20158;-78
2021/05/15 16:59:16;;;;;;;6.72;2.58;;;;;;;11.89;100.00;99936.63;10282600;28;20038;-79
2021/05/15 17:04:17;;;;;;;3.15;1.23;;;;;;;11.48;100.00;99885.63;10279829;28;20395;-80
2021/05/15 17:09:17;;;;;;;3.80;1.70;;;;;;;11.96;100.00;99947.44;10280621;28;20047;-80
2021/05/15 17:14:18;;;;;;;6.57;2.60;;;;;;;11.99;100.00;99952.06;10267436;28;20035;-79
2021/05/15 17:19:20;;;;;;;3.45;1.38;;;;;;;12.00;100.00;99899.47;10272850;28;20177;-80
2021/05/15 17:24:21;;;;;;;2.17;1.20;;;;;;;12.43;100.00;99942.66;10274186;28;20391;-80
2021/05/15 17:29:21;;;;;;;3.70;1.95;;;;;;;12.63;100.00;99935.63;10276014;28;20034;-79
2021/05/15 17:34:22;;;;;;;4.72;2.35;;;;;;;12.75;100.00;99925.50;10280434;28;20027;-81
2021/05/15 17:39:22;;;;;;;6.25;2.35;;;;;;;12.84;100.00;99939.38;10264056;28;20046;-81
2021/05/15 17:44:23;;;;;;;8.23;4.35;;;;;;;12.87;100.00;99938.59;10275177;28;22314;-80
2021/05/15 17:49:24;;;;;;;2.85;1.60;;;;;;;12.75;100.00;99937.09;10285204;28;20043;-79
2021/05/15 17:54:24;;;;;;;2.67;1.30;;;;;;;12.50;100.00;99893.84;10271898;28;20131;-79
2021/05/15 17:59:25;;;;;;;2.92;1.05;;;;;;;12.59;100.00;99929.44;10273663;28;20045;-78
2021/05/15 18:04:26;;;;;;;2.67;1.05;;;;;;;12.04;100.00;99889.38;10268491;28;20054;-80
2021/05/15 18:09:26;;;;;;;7.72;1.60;;;;;;;12.15;100.00;99982.22;10260110;28;20042;-79
2021/05/15 18:14:27;;;;;;;12.88;2.60;;;;;;;11.49;100.00;99990.00;10274724;28;21033;-79
2021/05/15 18:19:28;;;;;;;14.10;4.00;;;;;;;11.04;100.00;99932.75;10277912;28;20027;-80
2021/05/15 18:24:29;;;;;;;12.05;2.63;;;;;;;11.07;100.00;99959.00;10279173;28;20035;-79
2021/05/15 18:29:29;;;;;;;17.98;2.90;;;;;;;11.13;100.00;99968.31;10250478;28;20134;-78
2021/05/15 18:34:31;;;;;;;11.80;2.67;;;;;;;10.85;100.00;99921.13;10241044;28;20122;-79
2021/05/15 18:39:31;;;;;;;14.90;3.40;;;;;;;11.03;100.00;99944.69;10286472;28;20041;-80
2021/05/15 18:44:32;;;;;;;11.18;2.97;;;;;;;10.88;100.00;99906.06;10307747;28;20493;-81
2021/05/15 18:49:33;;;;;;;10.23;3.00;;;;;;;11.18;100.00;99944.34;10284981;28;20067;-81
2021/05/15 18:54:33;;;;;;;13.98;2.95;;;;;;;11.28;100.00;99953.63;10281905;28;20086;-80
2021/05/15 18:59:34;;;;;;;14.40;3.20;;;;;;;11.32;100.00;99959.81;10261112;28;20035;-78
2021/05/15 19:04:34;;;;;;;10.15;3.50;;;;;;;11.30;100.00;99961.38;10290967;28;20050;-79
2021/05/15 19:09:35;;;;;;;15.05;3.80;;;;;;;10.91;100.00;99903.38;10286918;28;20054;-79
2021/05/15 19:14:37;;;;;;;9.77;3.30;;;;;;;11.14;100.00;99959.03;10283462;28;20039;-80
2021/05/15 19:19:38;;;;;;;18.92;6.57;;;;;;;11.12;100.00;99950.50;10280827;28;20122;-80
2021/05/15 19:24:39;;;;;;;13.57;4.35;;;;;;;11.10;100.00;99969.06;10284459;28;20124;-79
2021/05/15 19:29:39;;;;;;;20.40;5.10;;;;;;;11.04;100.00;99971.38;10291281;28;20033;-80
2021/05/15 19:34:40;;;;;;;16.13;5.68;;;;;;;11.09;100.00;99986.44;10297514;28;20034;-80
2021/05/15 19:39:40;;;;;;;17.73;5.05;;;;;;;11.16;100.00;99989.19;10261046;28;20031;-78
2021/05/15 19:44:44;;;;;;;14.70;4.10;;;;;;;11.15;100.00;99999.22;10281003;28;20089;-77
2021/05/15 19:49:45;;;;;;;13.90;4.35;;;;;;;10.97;100.00;99972.13;10278110;28;20093;-78
2021/05/15 19:54:46;;;;;;;20.02;5.63;;;;;;;11.02;100.00;99978.31;10257309;28;20046;-77
2021/05/15 19:59:49;;;;;;;18.70;5.03;;;;;;;10.79;100.00;99960.47;10293751;28;20027;-76
2021/05/15 20:04:50;;;;;;;13.70;4.68;;;;;;;10.70;100.00;99962.78;10298420;28;20133;-76
2021/05/15 20:09:50;;;;;;;26.45;5.63;;;;;;;10.83;100.00;99977.50;10248475;28;20038;-78
2021/05/15 20:14:52;;;;;;;23.92;6.40;;;;;;;10.84;100.00;100006.09;10277020;28;20050;-78
2021/05/15 20:19:53;;;;;;;22.20;6.38;;;;;;;10.90;100.00;100009.97;10273476;28;20484;-79
2021/05/15 20:24:54;;;;;;;17.95;6.05;;;;;;;10.46;100.00;99943.38;10273071;28;20050;-78
2021/05/15 20:29:54;;;;;;;26.67;6.47;;;;;;;10.83;100.00;100003.75;10262527;28;20050;-79
2021/05/15 20:34:55;;;;;;;33.22;8.05;;;;;;;10.81;100.00;100006.84;10245795;28;20034;-78
2021/05/15 20:39:55;;;;;;;27.42;7.20;;;;;;;10.79;100.00;99992.94;10271779;28;20065;-78
2021/05/15 20:44:56;;;;;;;36.55;9.45;;;;;;;10.69;100.00;99982.84;10280722;28;20039;-79
2021/05/15 20:49:57;;;;;;;28.27;9.05;;;;;;;10.85;100.00;99996.81;10281164;28;20054;-80
2021/05/15 20:54:57;;;;;;;27.65;8.93;;;;;;;10.92;100.00;99996.06;10266821;28;20086;-80
2021/05/15 20:59:57;;;;;;;20.52;7.93;;;;;;;10.95;100.00;100006.88;10282068;28;20046;-80
2021/05/15 21:04:58;;;;;;;28.50;8.75;;;;;;;10.96;100.00;100007.69;10271147;28;20038;-79
2021/05/15 21:09:58;;;;;;;29.25;8.35;;;;;;;10.99;100.00;99996.84;10298847;28;20058;-81
2021/05/15 21:15:02;;;;;;;28.02;6.55;;;;;;;11.03;100.00;99996.09;10283800;28;20043;-81
2021/05/15 21:20:05;;;;;;;33.25;8.95;;;;;;;10.91;100.00;99989.91;10277404;28;20515;-80
2021/05/15 21:25:06;;;;;;;;;;;;;;;10.97;100.00;99988.34;10277086;28;20041;-78
2021/05/15 21:30:09;;;;;;;23.95;7.13;;;;;;;10.67;100.00;99944.63;10276647;28;19922;-77
2021/05/15 21:35:14;;;;;;;31.42;7.25;;;;;;;10.96;100.00;99997.63;10232439;28;20035;-77
2021/05/15 21:40:19;;;;;;;30.27;5.82;;;;;;;11.00;100.00;99993.00;10296824;28;20041;-77
2021/05/15 21:45:20;;;;;;;25.60;5.15;;;;;;;10.78;100.00;99953.53;10302819;28;20058;-76
2021/05/15 21:50:24;;;;;;;23.38;4.15;;;;;;;10.99;100.00;99991.44;10285843;28;20112;-77
2021/05/15 21:55:26;;;;;;;24.05;4.65;;;;;;;10.88;100.00;99990.63;10288063;28;20043;-77
2021/05/15 22:00:42;;;;;;;22.80;4.97;;;;;;;10.80;100.00;99978.28;10281818;28;20463;-76
2021/05/15 22:05:43;;;;;;;22.42;4.88;;;;;;;10.89;100.00;100013.84;10270604;28;20206;-76
2021/05/15 22:10:46;;;;;;;31.38;5.65;;;;;;;10.83;100.00;100009.94;10292988;28;20138;-78
2021/05/15 22:15:48;;;;;;;31.38;5.57;;;;;;;10.68;100.00;100002.94;10276980;28;20042;-76
2021/05/15 22:20:54;;;;;;;27.85;5.03;;;;;;;10.69;100.00;100020.69;10284259;28;20038;-76
2021/05/15 22:25:54;;;;;;;30.35;6.03;;;;;;;10.70;100.00;100028.44;10262581;28;20463;-77
2021/05/15 22:30:55;;;;;;;34.47;6.43;;;;;;;10.63;100.00;100028.41;10281441;28;20064;-77
2021/05/15 22:35:58;;;;;;;34.00;6.75;;;;;;;10.68;100.00;100030.75;10281136;28;20142;-77
2021/05/15 22:40:58;;;;;;;;;;;;;;;10.71;100.00;100029.19;10274431;28;20494;-77
2021/05/15 22:46:00;;;;;;;41.97;9.05;;;;;;;10.31;100.00;99995.81;10291160;28;19982;-76
2021/05/15 22:51:04;;;;;;;33.20;6.10;;;;;;;10.61;100.00;100029.94;10281178;28;20125;-77